createdAt,value
2017-09-16T17:23:06.181Z,11.61
2017-09-16T17:23:46.763Z,11.51
2017-09-16T17:24:27.342Z,11.54
2017-09-16T17:25:07.935Z,11.46
2017-09-16T17:25:48.541Z,11.37
2017-09-16T17:26:29.111Z,11.28
2017-09-16T17:27:09.715Z,11.33
2017-09-16T17:27:50.393Z,11.28
2017-09-16T17:28:31.017Z,11.29
2017-09-16T17:29:11.593Z,11.36
2017-09-16T17:29:52.204Z,11.25
2017-09-16T17:30:32.815Z,11.25
2017-09-16T17:31:13.390Z,11.24
2017-09-16T17:31:53.975Z,11.22
2017-09-16T17:32:34.547Z,11.29
2017-09-16T17:33:15.135Z,11.25
2017-09-16T17:33:55.719Z,11.28
2017-09-16T17:34:36.298Z,11.32
2017-09-16T17:35:16.884Z,11.28
2017-09-16T17:35:57.471Z,11.24
2017-09-16T17:36:38.043Z,11.35
2017-09-16T17:37:18.640Z,11.29
2017-09-16T17:37:59.217Z,11.28
2017-09-16T17:38:39.803Z,11.19
2017-09-16T17:39:20.383Z,11.22
2017-09-16T17:40:00.957Z,11.22
2017-09-16T17:40:41.537Z,11.24
2017-09-16T17:41:22.116Z,11.29
2017-09-16T17:42:02.694Z,11.28
2017-09-16T17:42:43.271Z,11.17
2017-09-16T17:43:23.858Z,11.22
2017-09-16T17:44:04.445Z,11.21
2017-09-16T17:44:45.019Z,11.15
2017-09-16T17:45:25.603Z,11.15
2017-09-16T17:46:06.188Z,11.09
2017-09-16T17:46:46.765Z,11.04
2017-09-16T17:47:27.354Z,11.07
2017-09-16T17:48:22.548Z,11.1
2017-09-16T17:49:03.133Z,11.07
2017-09-16T17:49:43.717Z,11.03
2017-09-16T17:50:24.294Z,11.1
2017-09-16T17:51:04.877Z,11.06
2017-09-16T17:51:45.455Z,11.03
2017-09-16T17:52:26.027Z,11.02
2017-09-16T17:53:06.612Z,10.96
2017-09-16T17:53:47.201Z,10.97
2017-09-16T17:54:27.791Z,10.97
2017-09-16T17:55:08.401Z,10.96
2017-09-16T17:55:48.970Z,10.92
2017-09-16T17:56:29.545Z,10.97
2017-09-16T17:57:10.132Z,11.02
2017-09-16T17:57:50.718Z,11
2017-09-16T17:58:31.306Z,10.92
2017-09-16T17:59:11.892Z,10.92
2017-09-16T17:59:52.464Z,10.99
2017-09-16T18:00:33.044Z,11
2017-09-16T18:01:13.630Z,10.91
2017-09-16T18:01:54.210Z,10.94
2017-09-16T18:02:34.791Z,10.88
2017-09-16T18:03:15.387Z,10.86
2017-09-16T18:03:55.957Z,10.88
2017-09-16T18:04:36.540Z,10.89
2017-09-16T18:05:17.124Z,10.82
2017-09-16T18:05:57.700Z,10.79
2017-09-16T18:06:38.278Z,10.82
2017-09-16T18:07:18.864Z,10.68
2017-09-16T18:07:59.438Z,10.76
2017-09-16T18:08:40.058Z,10.71
2017-09-16T18:09:20.648Z,10.68
2017-09-16T18:10:01.237Z,10.61
2017-09-16T18:10:41.800Z,10.61
2017-09-16T18:11:22.390Z,10.6
2017-09-16T18:12:02.965Z,10.61
2017-09-16T18:12:43.548Z,10.53
2017-09-16T18:13:24.125Z,10.59
2017-09-16T18:14:04.702Z,10.51
2017-09-16T18:14:45.287Z,10.51
2017-09-16T18:15:25.865Z,10.4
2017-09-16T18:16:06.448Z,10.38
2017-09-16T18:16:47.026Z,10.42
2017-09-16T18:17:27.604Z,10.34
2017-09-16T18:18:08.190Z,10.29
2017-09-16T18:18:48.778Z,10.36
2017-09-16T18:19:29.362Z,10.26
2017-09-16T18:20:09.947Z,10.27
2017-09-16T18:20:50.532Z,10.3
2017-09-16T18:21:31.119Z,10.33
2017-09-16T18:22:11.697Z,10.27
2017-09-16T18:22:52.277Z,10.3
2017-09-16T18:23:32.852Z,10.27
2017-09-16T18:24:13.433Z,10.23
2017-09-16T18:24:54.021Z,10.22
2017-09-16T18:25:34.605Z,10.17
2017-09-16T18:26:15.194Z,10.2
2017-09-16T18:26:55.762Z,10.14
2017-09-16T18:27:36.339Z,10.04
2017-09-16T18:28:16.924Z,9.96
2017-09-16T18:28:57.507Z,9.94
2017-09-16T18:29:38.075Z,9.91
2017-09-16T18:30:18.666Z,9.89
2017-09-16T18:30:59.248Z,9.91
2017-09-16T18:31:39.832Z,9.79
2017-09-16T18:32:20.422Z,9.83
2017-09-16T18:33:01.005Z,9.78
2017-09-16T18:33:41.589Z,9.93
2017-09-16T18:34:22.173Z,9.91
2017-09-16T18:35:02.768Z,9.87
2017-09-16T18:35:43.356Z,9.91
2017-09-16T18:36:23.942Z,9.81
2017-09-16T18:37:04.529Z,9.78
2017-09-16T18:37:45.112Z,9.75
2017-09-16T18:38:25.697Z,9.61
2017-09-16T18:39:06.271Z,9.61
2017-09-16T18:39:46.856Z,9.56
2017-09-16T18:40:27.441Z,9.61
2017-09-16T18:41:08.014Z,9.51
2017-09-16T18:41:48.606Z,9.46
2017-09-16T18:42:29.190Z,9.4
2017-09-16T18:43:09.781Z,9.51
2017-09-16T18:43:50.369Z,9.53
2017-09-16T18:44:30.955Z,9.53
2017-09-16T18:45:11.535Z,9.53
2017-09-16T18:45:52.115Z,9.51
2017-09-16T18:46:32.703Z,9.47
2017-09-16T18:47:13.285Z,9.46
2017-09-16T18:47:53.861Z,9.29
2017-09-16T18:48:34.439Z,9.28
2017-09-16T18:49:15.025Z,9.32
2017-09-16T18:49:55.598Z,9.31
2017-09-16T18:50:36.182Z,9.33
2017-09-16T18:51:16.760Z,9.23
2017-09-16T18:51:57.345Z,9.21
2017-09-16T18:52:37.920Z,9.2
2017-09-16T18:53:18.505Z,9.26
2017-09-16T18:53:59.085Z,9.2
2017-09-16T18:54:39.648Z,9.18
2017-09-16T18:55:20.243Z,9.14
2017-09-16T18:56:00.826Z,9.17
2017-09-16T18:56:41.396Z,9.14
2017-09-16T18:57:21.977Z,9.15
2017-09-16T18:58:02.562Z,9.18
2017-09-16T18:58:43.138Z,9.13
2017-09-16T18:59:23.717Z,9.13
2017-09-16T19:00:04.306Z,9.13
2017-09-16T19:00:44.886Z,9.14
2017-09-16T19:01:25.474Z,9.2
2017-09-16T19:02:06.053Z,9.2
2017-09-16T19:02:46.636Z,9.2
2017-09-16T19:03:27.211Z,9.2
2017-09-16T19:04:07.795Z,9.36
2017-09-16T19:04:48.378Z,9.36
2017-09-16T19:05:28.954Z,9.23
2017-09-16T19:06:09.544Z,9.24
2017-09-16T19:06:50.122Z,9.35
2017-09-16T19:07:30.699Z,9.28
2017-09-16T19:08:11.282Z,9.26
2017-09-16T19:08:51.867Z,9.29
2017-09-16T19:09:32.453Z,9.38
2017-09-16T19:10:13.036Z,9.38
2017-09-16T19:10:53.608Z,9.26
2017-09-16T19:11:34.182Z,9.33
2017-09-16T19:12:14.764Z,9.32
2017-09-16T19:12:55.333Z,9.31
2017-09-16T19:13:35.916Z,9.29
2017-09-16T19:14:16.502Z,9.21
2017-09-16T19:14:57.078Z,9.2
2017-09-16T19:15:37.660Z,9.28
2017-09-16T19:16:18.241Z,9.18
2017-09-16T19:16:58.818Z,9.24
2017-09-16T19:17:39.391Z,9.17
2017-09-16T19:18:19.970Z,9.15
2017-09-16T19:19:00.551Z,8.99
2017-09-16T19:19:41.130Z,9.01
2017-09-16T19:20:21.720Z,8.94
2017-09-16T19:21:02.298Z,8.99
2017-09-16T19:21:42.881Z,8.99
2017-09-16T19:22:23.446Z,8.98
2017-09-16T19:23:04.028Z,8.94
2017-09-16T19:23:44.612Z,8.86
2017-09-16T19:24:25.185Z,8.87
2017-09-16T19:25:05.774Z,8.83
2017-09-16T19:25:46.359Z,8.86
2017-09-16T19:26:26.931Z,8.81
2017-09-16T19:27:07.515Z,8.86
2017-09-16T19:27:48.099Z,8.79
2017-09-16T19:28:28.682Z,8.81
2017-09-16T19:29:09.264Z,8.74
2017-09-16T19:29:49.849Z,8.79
2017-09-16T19:30:30.429Z,8.77
2017-09-16T19:31:11.017Z,8.71
2017-09-16T19:31:51.601Z,8.63
2017-09-16T19:32:32.182Z,8.62
2017-09-16T19:33:12.775Z,8.61
2017-09-16T19:33:53.346Z,8.58
2017-09-16T19:34:33.930Z,8.63
2017-09-16T19:35:14.507Z,8.62
2017-09-16T19:35:55.097Z,8.63
2017-09-16T19:36:35.702Z,8.59
2017-09-16T19:37:16.265Z,8.61
2017-09-16T19:37:56.852Z,8.53
2017-09-16T19:38:37.430Z,8.58
2017-09-16T19:39:18.013Z,8.52
2017-09-16T19:39:58.598Z,8.56
2017-09-16T19:40:39.183Z,8.52
2017-09-16T19:41:19.752Z,8.5
2017-09-16T19:42:00.342Z,8.43
2017-09-16T19:42:40.914Z,8.29
2017-09-16T19:43:21.500Z,8.47
2017-09-16T19:44:02.076Z,8.3
2017-09-16T19:44:42.659Z,8.38
2017-09-16T19:45:23.243Z,8.36
2017-09-16T19:46:03.825Z,8.37
2017-09-16T19:46:44.412Z,8.37
2017-09-16T19:47:24.995Z,8.36
2017-09-16T19:48:05.567Z,8.3
2017-09-16T19:48:46.155Z,8.28
2017-09-16T19:49:26.729Z,8.33
2017-09-16T19:50:07.315Z,8.26
2017-09-16T19:50:47.898Z,8.33
2017-09-16T19:51:28.488Z,8.36
2017-09-16T19:52:09.058Z,8.26
2017-09-16T19:52:49.632Z,8.37
2017-09-16T19:53:30.197Z,8.36
2017-09-16T19:54:10.785Z,8.3
2017-09-16T19:54:51.372Z,8.43
2017-09-16T19:55:31.958Z,8.4
2017-09-16T19:56:12.530Z,8.38
2017-09-16T19:56:53.131Z,8.41
2017-09-16T19:57:33.687Z,8.45
2017-09-16T19:58:14.281Z,8.44
2017-09-16T19:58:54.856Z,8.3
2017-09-16T19:59:35.435Z,8.37
2017-09-16T20:00:16.015Z,8.3
2017-09-16T20:00:56.610Z,8.36
2017-09-16T20:01:37.196Z,8.34
2017-09-16T20:02:17.781Z,8.34
2017-09-16T20:02:58.366Z,8.37
2017-09-16T20:03:38.951Z,8.22
2017-09-16T20:04:19.529Z,8.23
2017-09-16T20:05:00.120Z,8.2
2017-09-16T20:05:40.704Z,8.28
2017-09-16T20:06:21.283Z,8.2
2017-09-16T20:07:01.864Z,8.25
2017-09-16T20:07:42.448Z,8.23
2017-09-16T20:08:23.028Z,8.26
2017-09-16T20:09:03.612Z,8.26
2017-09-16T20:09:44.197Z,8.25
2017-09-16T20:10:24.780Z,8.25
2017-09-16T20:11:05.364Z,8.16
2017-09-16T20:11:45.945Z,8.12
2017-09-16T20:12:26.524Z,8.08
2017-09-16T20:13:07.115Z,8.01
2017-09-16T20:13:47.699Z,8.1
2017-09-16T20:14:28.276Z,8
2017-09-16T20:15:08.850Z,8
2017-09-16T20:15:49.435Z,8.05
2017-09-16T20:16:44.545Z,8.01
2017-09-16T20:17:25.137Z,8.02
2017-09-16T20:18:05.712Z,8.08
2017-09-16T20:18:46.299Z,8.04
2017-09-16T20:19:26.878Z,8.07
2017-09-16T20:20:07.468Z,8.01
2017-09-16T20:20:48.052Z,7.92
2017-09-16T20:21:28.631Z,8.01
2017-09-16T20:22:22.149Z,8
2017-09-16T20:23:02.726Z,7.97
2017-09-16T20:23:43.320Z,7.92
2017-09-16T20:24:23.896Z,7.89
2017-09-16T20:25:04.482Z,7.85
2017-09-16T20:25:45.062Z,7.82
2017-09-16T20:26:25.643Z,7.83
2017-09-16T20:27:06.229Z,7.82
2017-09-16T20:27:46.803Z,7.85
2017-09-16T20:28:27.415Z,7.86
2017-09-16T20:29:07.960Z,7.75
2017-09-16T20:29:48.546Z,7.79
2017-09-16T20:30:29.130Z,7.8
2017-09-16T20:31:09.706Z,7.85
2017-09-16T20:31:50.298Z,7.79
2017-09-16T20:32:30.881Z,7.79
2017-09-16T20:33:11.461Z,7.77
2017-09-16T20:33:52.043Z,7.8
2017-09-16T20:34:32.616Z,7.8
2017-09-16T20:35:13.199Z,7.75
2017-09-16T20:35:53.800Z,7.8
2017-09-16T20:36:34.377Z,7.86
2017-09-16T20:37:14.946Z,7.8
2017-09-16T20:37:55.531Z,7.85
2017-09-16T20:38:36.116Z,7.87
2017-09-16T20:39:16.703Z,7.93
2017-09-16T20:39:57.286Z,7.93
2017-09-16T20:40:37.875Z,8.01
2017-09-16T20:41:18.448Z,7.97
2017-09-16T20:41:59.031Z,7.95
2017-09-16T20:42:39.618Z,8.04
2017-09-16T20:43:20.212Z,8.02
2017-09-16T20:44:00.797Z,8.05
2017-09-16T20:44:41.371Z,8.05
2017-09-16T20:45:21.958Z,8.16
2017-09-16T20:46:02.546Z,8.18
2017-09-16T20:46:43.126Z,8.15
2017-09-16T20:47:23.708Z,8.25
2017-09-16T20:48:04.305Z,8.25
2017-09-16T20:48:44.889Z,8.28
2017-09-16T20:49:25.473Z,8.23
2017-09-16T20:50:06.056Z,8.26
2017-09-16T20:50:46.645Z,8.28
2017-09-16T20:51:27.228Z,8.2
2017-09-16T20:52:07.808Z,8.25
2017-09-16T20:52:48.398Z,8.19
2017-09-16T20:53:28.982Z,8.2
2017-09-16T20:54:09.569Z,8.22
2017-09-16T20:54:50.148Z,8.18
2017-09-16T20:55:30.737Z,8.25
2017-09-16T20:56:11.311Z,8.25
2017-09-16T20:56:51.886Z,8.3
2017-09-16T20:57:32.469Z,8.26
2017-09-16T20:59:30.212Z,8.28
2017-09-16T21:00:10.794Z,8.28
2017-09-16T21:00:51.379Z,8.28
2017-09-16T21:01:31.966Z,8.34
2017-09-16T21:02:12.546Z,8.33
2017-09-16T21:02:53.124Z,8.33
2017-09-16T21:03:33.708Z,8.33
2017-09-16T21:04:14.286Z,8.28
2017-09-16T21:04:54.860Z,8.22
2017-09-16T21:05:35.443Z,8.23
2017-09-16T21:06:16.015Z,8.25
2017-09-16T21:06:56.593Z,8.19
2017-09-16T21:07:37.172Z,8.2
2017-09-16T21:08:17.748Z,8.18
2017-09-16T21:08:58.331Z,8.19
2017-09-16T21:09:38.910Z,8.11
2017-09-16T21:10:19.504Z,8.05
2017-09-16T21:11:00.075Z,8.11
2017-09-16T21:11:40.645Z,8.04
2017-09-16T21:12:21.230Z,8.07
2017-09-16T21:13:01.808Z,8.05
2017-09-16T21:13:42.386Z,8.05
2017-09-16T21:14:22.967Z,8.07
2017-09-16T21:15:03.545Z,8.1
2017-09-16T21:15:44.117Z,8.11
2017-09-16T21:16:24.687Z,8.05
2017-09-16T21:17:05.270Z,7.93
2017-09-16T21:17:45.850Z,8
2017-09-16T21:18:26.425Z,7.87
2017-09-16T21:19:07.009Z,7.85
2017-09-16T21:19:47.584Z,7.83
2017-09-16T21:20:28.156Z,7.86
2017-09-16T21:21:08.736Z,7.86
2017-09-16T21:21:49.306Z,7.75
2017-09-16T21:22:29.889Z,7.75
2017-09-16T21:23:10.462Z,7.83
2017-09-16T21:23:51.050Z,7.8
2017-09-16T21:24:31.627Z,7.72
2017-09-16T21:25:12.210Z,7.8
2017-09-16T21:25:52.789Z,7.8
2017-09-16T21:26:33.371Z,7.79
2017-09-16T21:27:13.951Z,7.79
2017-09-16T21:27:54.537Z,7.79
2017-09-16T21:28:35.107Z,7.79
2017-09-16T21:29:15.683Z,7.79
2017-09-16T21:29:56.265Z,7.8
2017-09-16T21:30:36.858Z,7.75
2017-09-16T21:31:17.437Z,7.77
2017-09-16T21:31:58.020Z,7.72
2017-09-16T21:32:38.601Z,7.82
2017-09-16T21:33:31.068Z,7.82
2017-09-16T21:34:11.654Z,7.82
2017-09-16T21:34:52.236Z,7.95
2017-09-16T21:35:32.813Z,7.87
2017-09-16T21:36:13.387Z,7.93
2017-09-16T21:36:53.972Z,7.98
2017-09-16T21:37:34.559Z,8
2017-09-16T21:38:15.134Z,7.95
2017-09-16T21:38:55.713Z,7.87
2017-09-16T21:39:36.298Z,7.82
2017-09-16T21:40:16.878Z,7.89
2017-09-16T21:40:57.448Z,7.95
2017-09-16T21:41:38.053Z,7.9
2017-09-16T21:42:18.608Z,7.86
2017-09-16T21:42:59.187Z,7.82
2017-09-16T21:43:39.763Z,7.85
2017-09-16T21:44:20.348Z,7.82
2017-09-16T21:45:00.924Z,7.67
2017-09-16T21:45:41.502Z,7.67
2017-09-16T21:46:22.078Z,7.61
2017-09-16T21:47:02.655Z,7.69
2017-09-16T21:47:43.238Z,7.77
2017-09-16T21:48:23.819Z,7.61
2017-09-16T21:49:04.391Z,7.67
2017-09-16T21:49:44.972Z,7.74
2017-09-16T21:50:25.543Z,7.6
2017-09-16T21:51:06.129Z,7.58
2017-09-16T21:51:46.710Z,7.58
2017-09-16T21:52:27.282Z,7.64
2017-09-16T21:53:07.863Z,7.61
2017-09-16T21:53:48.446Z,7.69
2017-09-16T21:54:29.023Z,7.75
2017-09-16T21:55:09.604Z,7.77
2017-09-16T21:55:50.181Z,7.8
2017-09-16T21:56:30.752Z,7.71
2017-09-16T21:57:11.332Z,7.69
2017-09-16T21:57:51.920Z,7.69
2017-09-16T21:58:32.496Z,7.6
2017-09-16T21:59:13.075Z,7.67
2017-09-16T21:59:53.656Z,7.71
2017-09-16T22:00:34.241Z,7.64
2017-09-16T22:01:14.822Z,7.71
2017-09-16T22:01:55.391Z,7.69
2017-09-16T22:02:35.958Z,7.71
2017-09-16T22:03:16.527Z,7.82
2017-09-16T22:03:57.118Z,7.64
2017-09-16T22:04:37.699Z,7.64
2017-09-16T22:05:18.282Z,7.71
2017-09-16T22:05:58.861Z,7.64
2017-09-16T22:06:39.448Z,7.77
2017-09-16T22:07:20.033Z,7.82
2017-09-16T22:08:00.603Z,7.8
2017-09-16T22:08:41.177Z,7.79
2017-09-16T22:09:21.746Z,7.85
2017-09-16T22:10:02.348Z,7.87
2017-09-16T22:10:42.929Z,7.93
2017-09-16T22:11:23.513Z,7.92
2017-09-16T22:12:04.093Z,7.85
2017-09-16T22:12:44.676Z,7.93
2017-09-16T22:13:25.250Z,7.95
2017-09-16T22:14:05.836Z,8.01
2017-09-16T22:14:46.422Z,8
2017-09-16T22:15:27.001Z,7.98
2017-09-16T22:16:07.580Z,7.93
2017-09-16T22:16:48.157Z,7.98
2017-09-16T22:17:28.738Z,8.02
2017-09-16T22:18:09.319Z,7.95
2017-09-16T22:18:49.905Z,7.95
2017-09-16T22:19:30.485Z,7.9
2017-09-16T22:20:11.070Z,7.97
2017-09-16T22:20:51.660Z,7.89
2017-09-16T22:21:32.255Z,7.92
2017-09-16T22:22:12.822Z,7.9
2017-09-16T22:22:53.404Z,7.86
2017-09-16T22:23:33.985Z,7.93
2017-09-16T22:24:14.564Z,7.93
2017-09-16T22:24:55.145Z,7.92
2017-09-16T22:25:35.724Z,7.82
2017-09-16T22:26:16.308Z,7.95
2017-09-16T22:26:56.886Z,7.86
2017-09-16T22:27:37.462Z,7.87
2017-09-16T22:28:18.046Z,7.79
2017-09-16T22:28:58.623Z,7.8
2017-09-16T22:29:39.199Z,7.83
2017-09-16T22:30:19.780Z,7.82
2017-09-16T22:31:00.362Z,7.86
2017-09-16T22:31:40.944Z,7.93
2017-09-16T22:32:21.515Z,7.85
2017-09-16T22:33:02.093Z,7.93
2017-09-16T22:33:42.674Z,7.98
2017-09-16T22:34:23.260Z,7.92
2017-09-16T22:35:03.837Z,7.92
2017-09-16T22:35:44.401Z,8.04
2017-09-16T22:36:24.981Z,8
2017-09-16T22:37:05.560Z,8.05
2017-09-16T22:37:46.144Z,8.01
2017-09-16T22:38:26.716Z,8.08
2017-09-16T22:39:07.287Z,8.1
2017-09-16T22:39:47.859Z,8.05
2017-09-16T22:40:28.446Z,8.05
2017-09-16T22:41:09.015Z,8.07
2017-09-16T22:41:49.590Z,8.15
2017-09-16T22:42:30.168Z,8.12
2017-09-16T22:43:10.747Z,8.18
2017-09-16T22:43:51.318Z,8.18
2017-09-16T22:44:31.890Z,8.2
2017-09-16T22:45:12.473Z,8.25
2017-09-16T22:45:53.054Z,8.2
2017-09-16T22:46:33.629Z,8.2
2017-09-16T22:47:14.204Z,8.23
2017-09-16T22:47:54.788Z,8.25
2017-09-16T22:48:35.367Z,8.19
2017-09-16T22:49:15.952Z,8.22
2017-09-16T22:49:56.534Z,8.29
2017-09-16T22:50:37.113Z,8.26
2017-09-16T22:51:17.687Z,8.23
2017-09-16T22:51:58.273Z,8.26
2017-09-16T22:52:38.849Z,8.29
2017-09-16T22:53:19.433Z,8.25
2017-09-16T22:54:00.006Z,8.23
2017-09-16T22:54:40.586Z,8.25
2017-09-16T22:55:21.158Z,8.25
2017-09-16T22:56:01.751Z,8.26
2017-09-16T22:56:42.333Z,8.26
2017-09-16T22:57:22.906Z,8.26
2017-09-16T22:58:03.497Z,8.26
2017-09-16T22:58:44.099Z,8.25
2017-09-16T22:59:24.664Z,8.28
2017-09-16T23:00:05.248Z,8.26
2017-09-16T23:00:45.824Z,8.28
2017-09-16T23:01:26.396Z,8.3
2017-09-16T23:02:06.987Z,8.3
2017-09-16T23:02:47.564Z,8.4
2017-09-16T23:03:28.135Z,8.29
2017-09-16T23:04:08.718Z,8.37
2017-09-16T23:04:49.282Z,8.33
2017-09-16T23:05:29.865Z,8.3
2017-09-16T23:06:10.444Z,8.33
2017-09-16T23:06:51.025Z,8.36
2017-09-16T23:07:31.611Z,8.33
2017-09-16T23:08:12.198Z,8.33
2017-09-16T23:08:52.780Z,8.33
2017-09-16T23:09:33.349Z,8.28
2017-09-16T23:10:13.926Z,8.25
2017-09-16T23:10:54.509Z,8.26
2017-09-16T23:11:35.086Z,8.23
2017-09-16T23:12:15.680Z,8.25
2017-09-16T23:14:08.288Z,8.26
2017-09-16T23:14:48.855Z,8.25
2017-09-16T23:15:29.435Z,8.25
2017-09-16T23:16:10.006Z,8.26
2017-09-16T23:16:50.584Z,8.25
2017-09-16T23:17:31.163Z,8.28
2017-09-16T23:18:11.736Z,8.26
2017-09-16T23:18:52.305Z,8.29
2017-09-16T23:19:32.882Z,8.37
2017-09-16T23:20:13.461Z,8.26
2017-09-16T23:20:54.045Z,8.3
2017-09-16T23:21:34.610Z,8.33
2017-09-16T23:22:15.191Z,8.3
2017-09-16T23:22:55.770Z,8.29
2017-09-16T23:23:36.352Z,8.3
2017-09-16T23:24:16.926Z,8.37
2017-09-16T23:24:57.505Z,8.41
2017-09-16T23:25:38.085Z,8.41
2017-09-16T23:26:18.666Z,8.34
2017-09-16T23:26:59.239Z,8.41
2017-09-16T23:27:39.812Z,8.44
2017-09-16T23:28:20.382Z,8.44
2017-09-16T23:29:00.958Z,8.4
2017-09-16T23:29:41.543Z,8.43
2017-09-16T23:30:22.122Z,8.43
2017-09-16T23:31:02.706Z,8.41
2017-09-16T23:31:43.288Z,8.3
2017-09-16T23:32:23.865Z,8.38
2017-09-16T23:33:04.437Z,8.43
2017-09-16T23:33:45.022Z,8.45
2017-09-16T23:34:25.591Z,8.37
2017-09-16T23:35:06.182Z,8.38
2017-09-16T23:35:46.761Z,8.4
2017-09-16T23:36:27.333Z,8.44
2017-09-16T23:37:07.916Z,8.37
2017-09-16T23:37:48.499Z,8.4
2017-09-16T23:38:29.077Z,8.44
2017-09-16T23:39:09.657Z,8.41
2017-09-16T23:39:50.239Z,8.41
2017-09-16T23:40:30.820Z,8.5
2017-09-16T23:41:11.397Z,8.41
2017-09-16T23:41:51.974Z,8.44
2017-09-16T23:42:32.557Z,8.44
2017-09-16T23:43:13.128Z,8.47
2017-09-16T23:43:53.714Z,8.5
2017-09-16T23:44:34.292Z,8.45
2017-09-16T23:45:14.874Z,8.53
2017-09-16T23:45:55.453Z,8.45
2017-09-16T23:46:36.029Z,8.53
2017-09-16T23:47:16.606Z,8.5
2017-09-16T23:47:57.186Z,8.55
2017-09-16T23:48:37.767Z,8.53
2017-09-16T23:49:18.345Z,8.62
2017-09-16T23:49:58.924Z,8.47
2017-09-16T23:50:39.507Z,8.56
2017-09-16T23:51:20.080Z,8.56
2017-09-16T23:52:00.655Z,8.52
2017-09-16T23:52:41.230Z,8.59
2017-09-16T23:53:21.809Z,8.48
2017-09-16T23:54:02.393Z,8.53
2017-09-16T23:54:42.976Z,8.58
2017-09-16T23:55:23.537Z,8.53
2017-09-16T23:56:04.125Z,8.56
2017-09-16T23:56:44.692Z,8.58
2017-09-16T23:57:25.272Z,8.53
2017-09-16T23:58:05.847Z,8.55
2017-09-16T23:58:46.405Z,8.55
2017-09-16T23:59:26.984Z,8.53
